createdAt,value
2023-05-12T00:01:52.947Z,101168.16
2023-05-12T00:04:19.699Z,101168.20
2023-05-12T00:06:46.272Z,101171.77
2023-05-12T00:09:12.806Z,101172.48
2023-05-12T00:11:39.449Z,101172.75
2023-05-12T00:14:06.554Z,101171.41
2023-05-12T00:16:33.153Z,101172.73
2023-05-12T00:19:00.704Z,101161.63
2023-05-12T00:21:27.457Z,101178.21
2023-05-12T00:23:53.899Z,101175.61
2023-05-12T00:26:20.672Z,101174.14
2023-05-12T00:28:48.106Z,101168.83
2023-05-12T00:31:15.235Z,101172.80
2023-05-12T00:33:41.991Z,101173.49
2023-05-12T00:36:08.804Z,101175.20
2023-05-12T00:38:36.664Z,101177.39
2023-05-12T00:41:04.032Z,101178.98
2023-05-12T00:43:31.386Z,101164.04
2023-05-12T00:45:58.545Z,101188.26
2023-05-12T00:48:25.531Z,101189.56
2023-05-12T00:50:54.120Z,101192.06
2023-05-12T00:53:20.949Z,101190.83
2023-05-12T00:55:47.617Z,101191.69
2023-05-12T00:58:14.683Z,101195.02
2023-05-12T01:00:41.438Z,101196.02
2023-05-12T01:03:08.443Z,101198.07
2023-05-12T01:06:01.001Z,101201.36
2023-05-12T01:08:28.404Z,101200.84
2023-05-12T01:10:55.065Z,101205.23
2023-05-12T01:13:21.548Z,101205.02
2023-05-12T01:15:51.695Z,101208.33
2023-05-12T01:18:21.034Z,101208.45
2023-05-12T01:20:48.264Z,101210.16
2023-05-12T01:23:19.042Z,101199.56
2023-05-12T01:25:49.583Z,101211.77
2023-05-12T01:28:17.430Z,101212.85
2023-05-12T01:30:45.486Z,101216.89
2023-05-12T01:33:13.605Z,101213.71
2023-05-12T01:35:40.239Z,101214.33
2023-05-12T01:38:06.749Z,101214.05
2023-05-12T01:40:36.815Z,101213.81
2023-05-12T01:43:03.431Z,101212.55
2023-05-12T01:45:32.913Z,101215.83
2023-05-12T01:47:59.802Z,101218.16
2023-05-12T01:50:26.918Z,101220.58
2023-05-12T01:52:53.783Z,101219.36
2023-05-12T01:55:20.901Z,101219.93
2023-05-12T01:57:53.965Z,101222.37
2023-05-12T02:00:21.067Z,101219.73
2023-05-12T02:02:48.067Z,101218.11
2023-05-12T02:05:15.337Z,101216.88
2023-05-12T02:07:43.540Z,101217.36
2023-05-12T02:10:10.816Z,101217.88
2023-05-12T02:12:38.232Z,101219.14
2023-05-12T02:15:05.645Z,101216.86
2023-05-12T02:17:32.719Z,101216.83
2023-05-12T02:20:01.549Z,101218.41
2023-05-12T02:22:28.063Z,101218.48
2023-05-12T02:24:55.236Z,101221.97
2023-05-12T02:27:22.266Z,101222.28
2023-05-12T02:29:49.014Z,101222.44
2023-05-12T02:32:16.117Z,101224.69
2023-05-12T02:34:45.251Z,101225.63
2023-05-12T02:37:11.816Z,101230.02
2023-05-12T02:39:38.625Z,101232.37
2023-05-12T02:42:05.860Z,101215.80
2023-05-12T02:44:32.430Z,101228.88
2023-05-12T02:46:59.332Z,101232.42
2023-05-12T02:49:25.781Z,101232.06
2023-05-12T02:51:52.264Z,101236.26
2023-05-12T02:54:19.035Z,101237.62
2023-05-12T02:56:45.616Z,101238.46
2023-05-12T02:59:12.072Z,101242.84
2023-05-12T03:01:38.895Z,101240.48
2023-05-12T03:04:05.629Z,101244.63
2023-05-12T03:06:32.677Z,101242.41
2023-05-12T03:08:59.615Z,101242.15
2023-05-12T03:11:26.166Z,101245.77
2023-05-12T03:13:52.775Z,101245.99
2023-05-12T03:16:19.954Z,101242.10
2023-05-12T03:18:47.168Z,101241.24
2023-05-12T03:21:13.784Z,101242.69
2023-05-12T03:23:40.690Z,101244.60
2023-05-12T03:26:07.308Z,101243.18
2023-05-12T03:28:34.821Z,101246.98
2023-05-12T03:31:01.510Z,101251.68
2023-05-12T03:33:28.927Z,101248.77
2023-05-12T03:35:56.190Z,101252.40
2023-05-12T03:38:23.020Z,101250.00
2023-05-12T03:40:52.146Z,101250.59
2023-05-12T03:43:19.019Z,101250.80
2023-05-12T03:45:45.561Z,101250.31
2023-05-12T03:48:12.186Z,101255.39
2023-05-12T03:50:38.770Z,101257.30
2023-05-12T03:53:05.459Z,101255.47
2023-05-12T03:55:34.706Z,101258.96
2023-05-12T03:58:01.404Z,101263.65
2023-05-12T04:00:28.301Z,101262.31
2023-05-12T04:02:55.108Z,101265.89
2023-05-12T04:05:21.819Z,101268.09
2023-05-12T04:07:48.450Z,101269.70
2023-05-12T04:10:15.656Z,101270.64
2023-05-12T04:12:42.202Z,101267.88
2023-05-12T04:15:09.396Z,101277.36
2023-05-12T04:17:36.427Z,101281.05
2023-05-12T04:20:03.614Z,101281.77
2023-05-12T04:22:30.270Z,101283.14
2023-05-12T04:24:57.010Z,101281.52
2023-05-12T04:27:23.788Z,101286.02
2023-05-12T04:29:51.149Z,101285.09
2023-05-12T04:32:17.967Z,101260.77
2023-05-12T04:34:45.310Z,101283.14
2023-05-12T04:37:11.977Z,101284.40
2023-05-12T04:39:39.154Z,101284.29
2023-05-12T04:42:06.673Z,101284.95
2023-05-12T04:44:34.544Z,101284.59
2023-05-12T04:47:01.107Z,101287.38
2023-05-12T04:49:27.833Z,101288.64
2023-05-12T04:51:54.458Z,101286.98
2023-05-12T04:54:21.395Z,101289.90
2023-05-12T04:56:48.123Z,101288.95
2023-05-12T04:59:15.478Z,101291.11
2023-05-12T05:01:42.687Z,101286.66
2023-05-12T05:04:09.437Z,101287.88
2023-05-12T05:06:36.520Z,101290.58
2023-05-12T05:09:03.517Z,101297.01
2023-05-12T05:11:30.435Z,101296.75
2023-05-12T05:13:57.472Z,101297.01
2023-05-12T05:16:24.754Z,101296.07
2023-05-12T05:18:51.889Z,101297.59
2023-05-12T05:21:18.904Z,101303.36
2023-05-12T05:23:45.753Z,101300.68
2023-05-12T05:26:12.357Z,101306.29
2023-05-12T05:28:39.579Z,101307.42
2023-05-12T05:31:07.796Z,101308.55
2023-05-12T05:33:34.459Z,101307.35
2023-05-12T05:36:01.456Z,101306.50
2023-05-12T05:38:28.281Z,101304.98
2023-05-12T05:40:54.973Z,101307.49
2023-05-12T05:43:24.348Z,101284.89
2023-05-12T05:45:55.354Z,101306.92
2023-05-12T05:48:22.341Z,101306.15
2023-05-12T05:50:51.387Z,101308.94
2023-05-12T05:53:19.646Z,101313.95
2023-05-12T05:55:48.149Z,101316.65
2023-05-12T05:58:15.655Z,101317.64
2023-05-12T06:00:43.323Z,101310.84
2023-05-12T06:03:10.043Z,101318.52
2023-05-12T06:05:37.398Z,101323.02
2023-05-12T06:08:04.828Z,101326.43
2023-05-12T06:10:31.586Z,101324.27
2023-05-12T06:12:58.529Z,101323.31
2023-05-12T06:15:25.393Z,101324.83
2023-05-12T06:17:52.001Z,101326.64
2023-05-12T06:20:19.518Z,101315.17
2023-05-12T06:22:46.372Z,101325.27
2023-05-12T06:25:12.929Z,101331.70
2023-05-12T06:27:39.621Z,101328.43
2023-05-12T06:30:06.962Z,101316.61
2023-05-12T06:32:33.773Z,101322.14
2023-05-12T06:35:00.806Z,101320.09
2023-05-12T06:37:27.303Z,101321.67
2023-05-12T06:39:53.922Z,101324.59
2023-05-12T06:42:20.748Z,101324.41
2023-05-12T06:44:51.420Z,101324.34
2023-05-12T06:47:20.552Z,101323.27
2023-05-12T06:49:49.528Z,101301.13
2023-05-12T06:52:16.819Z,101324.59
2023-05-12T06:54:43.435Z,101325.21
2023-05-12T06:57:10.334Z,101324.98
2023-05-12T06:59:36.899Z,101324.38
2023-05-12T07:02:03.645Z,101320.42
2023-05-12T07:04:30.479Z,101323.06
2023-05-12T07:06:57.018Z,101320.01
2023-05-12T07:09:24.034Z,101315.62
2023-05-12T07:11:50.829Z,101320.70
2023-05-12T07:14:17.545Z,101315.67
2023-05-12T07:16:44.127Z,101315.21
2023-05-12T07:19:10.960Z,101311.46
2023-05-12T07:21:37.593Z,101314.27
2023-05-12T07:24:05.648Z,101304.02
2023-05-12T07:26:32.973Z,101313.22
2023-05-12T07:29:00.238Z,101315.46
2023-05-12T07:31:27.046Z,101310.30
2023-05-12T07:33:54.215Z,101314.28
2023-05-12T07:36:22.101Z,101318.16
2023-05-12T07:38:49.365Z,101317.09
2023-05-12T07:41:16.838Z,101317.44
2023-05-12T07:43:43.441Z,101320.86
2023-05-12T07:46:10.406Z,101321.05
2023-05-12T07:48:39.439Z,101320.34
2023-05-12T07:51:06.660Z,101318.62
2023-05-12T07:53:33.497Z,101322.26
2023-05-12T07:56:00.248Z,101320.39
2023-05-12T07:58:26.782Z,101329.51
2023-05-12T08:00:54.018Z,101329.98
2023-05-12T08:03:20.982Z,101320.37
2023-05-12T08:05:49.162Z,101318.88
2023-05-12T08:08:16.123Z,101276.70
2023-05-12T08:10:43.660Z,101312.23
2023-05-12T08:13:10.170Z,101324.21
2023-05-12T08:15:37.038Z,101321.18
2023-05-12T08:18:03.932Z,101321.48
2023-05-12T08:20:31.639Z,101318.13
2023-05-12T08:22:58.216Z,101320.61
2023-05-12T08:25:26.537Z,101320.98
2023-05-12T08:27:53.193Z,101315.21
2023-05-12T08:30:19.898Z,101313.96
2023-05-12T08:32:46.721Z,101312.44
2023-05-12T08:35:13.330Z,101316.86
2023-05-12T08:37:40.185Z,101319.30
2023-05-12T08:40:16.082Z,101313.00
2023-05-12T08:42:48.265Z,101308.01
2023-05-12T08:45:15.094Z,101318.89
2023-05-12T08:47:43.050Z,101316.02
2023-05-12T08:50:10.014Z,101317.85
2023-05-12T08:52:37.092Z,101311.56
2023-05-12T08:55:04.322Z,101309.55
2023-05-12T08:57:31.067Z,101303.02
2023-05-12T09:00:00.550Z,101305.86
2023-05-12T09:02:35.049Z,101302.55
2023-05-12T09:05:11.458Z,101309.86
2023-05-12T09:07:43.098Z,101307.25
2023-05-12T09:10:32.958Z,101311.96
2023-05-12T09:13:14.636Z,101309.21
2023-05-12T09:15:45.339Z,101309.45
2023-05-12T09:18:11.929Z,101307.09
2023-05-12T09:20:38.415Z,101313.31
2023-05-12T09:23:16.011Z,101303.10
2023-05-12T09:25:42.547Z,101307.36
2023-05-12T09:28:09.354Z,101302.11
2023-05-12T09:30:37.981Z,101305.77
2023-05-12T09:33:09.620Z,101306.92
2023-05-12T09:35:44.379Z,101303.82
2023-05-12T09:38:13.381Z,101306.83
2023-05-12T09:40:40.477Z,101297.39
2023-05-12T09:43:07.754Z,101296.51
2023-05-12T09:45:35.796Z,101293.42
2023-05-12T09:48:10.841Z,101296.41
2023-05-12T09:50:48.641Z,101296.59
2023-05-12T09:53:18.332Z,101305.53
2023-05-12T09:55:46.452Z,101303.02
2023-05-12T09:58:16.179Z,101298.48
2023-05-12T10:00:59.088Z,101300.11
2023-05-12T10:03:32.872Z,101295.73
2023-05-12T10:06:02.215Z,101288.73
2023-05-12T10:08:43.926Z,101290.13
2023-05-12T10:11:11.039Z,101293.84
2023-05-12T10:13:38.321Z,101292.92
2023-05-12T10:16:06.790Z,101286.84
2023-05-12T10:18:34.172Z,101289.13
2023-05-12T10:21:01.889Z,101282.47
2023-05-12T10:23:29.635Z,101287.18
2023-05-12T10:26:01.134Z,101281.09
2023-05-12T10:28:28.574Z,101271.66
2023-05-12T10:30:57.165Z,101281.08
2023-05-12T10:33:24.914Z,101278.86
2023-05-12T10:35:52.432Z,101281.10
2023-05-12T10:38:19.722Z,101262.96
2023-05-12T10:41:00.434Z,101278.55
2023-05-12T10:43:29.253Z,101281.12
2023-05-12T10:46:16.390Z,101287.91
2023-05-12T10:48:54.574Z,101280.27
2023-05-12T10:51:27.834Z,101276.73
2023-05-12T10:54:05.253Z,101273.52
2023-05-12T10:56:38.137Z,101275.95
2023-05-12T10:59:18.857Z,101267.70
2023-05-12T11:02:03.951Z,101274.15
2023-05-12T11:04:53.049Z,101269.03
2023-05-12T11:07:24.732Z,101261.44
2023-05-12T11:09:58.712Z,101260.83
2023-05-12T11:12:31.680Z,101260.48
2023-05-12T11:15:02.748Z,101257.08
2023-05-12T11:17:30.519Z,101259.45
2023-05-12T11:19:57.997Z,101260.86
2023-05-12T11:22:24.689Z,101268.35
2023-05-12T11:24:52.188Z,101259.92
2023-05-12T11:27:21.983Z,101255.27
2023-05-12T11:30:00.074Z,101262.41
2023-05-12T11:32:27.411Z,101267.63
2023-05-12T11:34:55.469Z,101265.52
2023-05-12T11:37:22.567Z,101259.80
2023-05-12T11:39:49.397Z,101264.73
2023-05-12T11:42:18.928Z,101263.84
2023-05-12T11:44:48.987Z,101261.98
2023-05-12T11:47:18.696Z,101263.76
2023-05-12T11:49:47.662Z,101253.51
2023-05-12T11:52:14.917Z,101247.31
2023-05-12T11:54:57.989Z,101254.23
2023-05-12T11:57:32.782Z,101258.98
2023-05-12T12:00:08.903Z,101267.85
2023-05-12T12:02:42.721Z,101266.12
2023-05-12T12:05:17.722Z,101253.98
2023-05-12T12:07:44.892Z,101261.59
2023-05-12T12:10:13.349Z,101262.67
2023-05-12T12:12:41.039Z,101256.39
2023-05-12T12:15:09.303Z,101249.06
2023-05-12T12:17:40.200Z,101250.46
2023-05-12T12:20:11.718Z,101256.56
2023-05-12T12:22:38.495Z,101251.48
2023-05-12T12:25:05.591Z,101252.28
2023-05-12T12:27:32.255Z,101247.81
2023-05-12T12:30:00.331Z,101248.98
2023-05-12T12:32:27.064Z,101235.95
2023-05-12T12:34:53.854Z,101239.25
2023-05-12T12:37:20.452Z,101242.55
2023-05-12T12:39:47.487Z,101241.51
2023-05-12T12:42:17.006Z,101249.39
2023-05-12T12:44:45.504Z,101245.29
2023-05-12T12:47:12.113Z,101245.02
2023-05-12T12:49:41.294Z,101235.42
2023-05-12T12:52:08.507Z,101240.48
2023-05-12T12:54:35.092Z,101238.58
2023-05-12T12:57:02.023Z,101237.50
2023-05-12T12:59:28.752Z,101230.98
2023-05-12T13:01:56.285Z,101238.32
2023-05-12T13:04:23.080Z,101228.41
2023-05-12T13:06:49.882Z,101196.20
2023-05-12T13:09:19.523Z,101231.75
2023-05-12T13:11:47.601Z,101224.91
2023-05-12T13:14:15.495Z,101219.90
2023-05-12T13:16:42.686Z,101216.68
2023-05-12T13:19:09.733Z,101215.41
2023-05-12T13:21:37.244Z,101215.92
2023-05-12T13:24:03.854Z,101219.46
2023-05-12T13:26:30.462Z,101217.87
2023-05-12T13:28:57.116Z,101209.16
2023-05-12T13:31:23.743Z,101211.68
2023-05-12T13:33:50.737Z,101206.69
2023-05-12T13:36:17.476Z,101209.99
2023-05-12T13:38:44.025Z,101216.27
2023-05-12T13:41:10.744Z,101209.31
2023-05-12T13:43:37.495Z,101201.82
2023-05-12T13:46:04.014Z,101198.63
2023-05-12T13:48:30.578Z,101197.44
2023-05-12T13:50:57.240Z,101205.11
2023-05-12T13:53:23.711Z,101199.35
2023-05-12T13:55:50.315Z,101201.37
2023-05-12T13:58:16.930Z,101202.59
2023-05-12T14:00:43.728Z,101205.77
2023-05-12T14:03:10.366Z,101196.13
2023-05-12T14:05:37.235Z,101197.77
2023-05-12T14:08:04.085Z,101198.79
2023-05-12T14:10:32.105Z,101202.20
2023-05-12T14:12:58.751Z,101198.89
2023-05-12T14:15:36.087Z,101195.41
2023-05-12T14:18:11.508Z,101189.56
2023-05-12T14:20:38.388Z,101195.80
2023-05-12T14:23:04.840Z,101179.86
2023-05-12T14:25:31.582Z,101193.61
2023-05-12T14:27:58.229Z,101192.90
2023-05-12T14:30:24.987Z,101191.84
2023-05-12T14:32:52.964Z,101196.14
2023-05-12T14:35:20.003Z,101199.71
2023-05-12T14:37:46.638Z,101194.16
2023-05-12T14:40:13.668Z,101195.87
2023-05-12T14:42:41.697Z,101193.64
2023-05-12T14:45:08.805Z,101191.42
2023-05-12T14:47:36.041Z,101194.93
2023-05-12T14:50:02.881Z,101187.11
2023-05-12T14:52:30.535Z,101183.34
2023-05-12T14:54:57.173Z,101191.54
2023-05-12T14:57:24.053Z,101191.32
2023-05-12T14:59:53.729Z,101194.96
2023-05-12T15:02:20.590Z,101186.41
2023-05-12T15:04:48.028Z,101183.22
2023-05-12T15:07:14.535Z,101180.29
2023-05-12T15:09:41.360Z,101183.83
2023-05-12T15:12:08.338Z,101186.71
2023-05-12T15:14:36.026Z,101182.06
2023-05-12T15:17:02.744Z,101182.45
2023-05-12T15:19:29.432Z,101188.23
2023-05-12T15:21:56.020Z,101187.80
2023-05-12T15:24:22.620Z,101185.17
2023-05-12T15:26:49.459Z,101183.02
2023-05-12T15:29:15.981Z,101188.51
2023-05-12T15:31:42.717Z,101188.40
2023-05-12T15:34:09.735Z,101187.31
2023-05-12T15:36:36.383Z,101191.94
2023-05-12T15:39:03.666Z,101186.55
2023-05-12T15:41:30.320Z,101190.77
2023-05-12T15:43:57.016Z,101190.60
2023-05-12T15:46:23.708Z,101186.70
2023-05-12T15:48:50.464Z,101187.05
2023-05-12T15:51:17.176Z,101185.73
2023-05-12T15:53:44.735Z,101185.57
2023-05-12T15:56:11.367Z,101186.73
2023-05-12T15:58:38.034Z,101184.06
2023-05-12T16:01:05.003Z,101183.22
2023-05-12T16:03:32.226Z,101186.12
2023-05-12T16:05:58.924Z,101186.69
2023-05-12T16:08:26.261Z,101184.52
2023-05-12T16:10:52.726Z,101184.48
2023-05-12T16:13:19.802Z,101187.82
2023-05-12T16:15:49.470Z,101190.06
2023-05-12T16:18:16.461Z,101188.41
2023-05-12T16:20:43.963Z,101187.91
2023-05-12T16:23:10.810Z,101192.83
2023-05-12T16:25:37.303Z,101189.02
2023-05-12T16:28:04.759Z,101185.14
2023-05-12T16:30:31.520Z,101185.95
2023-05-12T16:32:58.206Z,101190.50
2023-05-12T16:35:24.929Z,101184.58
2023-05-12T16:37:51.984Z,101195.42
2023-05-12T16:40:18.804Z,101196.71
2023-05-12T16:42:45.369Z,101195.23
2023-05-12T16:45:12.173Z,101192.02
2023-05-12T16:47:38.809Z,101194.95
2023-05-12T16:50:06.526Z,101196.58
2023-05-12T16:52:33.589Z,101197.27
2023-05-12T16:55:00.441Z,101201.21
2023-05-12T16:57:27.001Z,101200.70
2023-05-12T16:59:53.732Z,101199.33
2023-05-12T17:02:20.255Z,101200.95
2023-05-12T17:04:47.292Z,101200.49
2023-05-12T17:07:14.187Z,101200.48
2023-05-12T17:09:40.867Z,101205.63
2023-05-12T17:12:08.174Z,101209.29
2023-05-12T17:14:35.338Z,101202.06
2023-05-12T17:17:02.409Z,101203.98
2023-05-12T17:19:32.072Z,101206.00
2023-05-12T17:21:59.004Z,101179.65
2023-05-12T17:24:26.174Z,101206.63
2023-05-12T17:26:53.663Z,101206.13
2023-05-12T17:29:20.458Z,101209.12
2023-05-12T17:31:47.140Z,101208.04
2023-05-12T17:34:13.875Z,101209.05
2023-05-12T17:36:40.918Z,101208.26
2023-05-12T17:39:07.570Z,101212.34
2023-05-12T17:41:34.503Z,101215.75
2023-05-12T17:44:01.347Z,101218.79
2023-05-12T17:46:28.126Z,101214.14
2023-05-12T17:48:54.705Z,101218.08
2023-05-12T17:51:21.927Z,101218.01
2023-05-12T17:53:48.645Z,101218.77
2023-05-12T17:56:15.237Z,101221.64
2023-05-12T17:58:41.876Z,101225.33
2023-05-12T18:01:08.564Z,101229.05
2023-05-12T18:03:36.216Z,101227.54
2023-05-12T18:06:05.038Z,101227.12
2023-05-12T18:08:31.735Z,101229.21
2023-05-12T18:10:58.191Z,101234.44
2023-05-12T18:13:24.876Z,101236.41
2023-05-12T18:15:52.220Z,101237.73
2023-05-12T18:18:18.830Z,101244.08
2023-05-12T18:20:47.878Z,101244.45
2023-05-12T18:23:14.495Z,101245.50
2023-05-12T18:25:42.228Z,101242.41
2023-05-12T18:28:08.943Z,101246.87
2023-05-12T18:30:35.614Z,101248.66
2023-05-12T18:33:02.178Z,101252.58
2023-05-12T18:35:29.028Z,101253.75
2023-05-12T18:37:55.986Z,101255.98
2023-05-12T18:40:22.456Z,101260.91
2023-05-12T18:42:50.118Z,101262.45
2023-05-12T18:45:17.897Z,101265.73
2023-05-12T18:47:45.521Z,101267.56
2023-05-12T18:50:12.477Z,101265.87
2023-05-12T18:52:39.106Z,101267.48
2023-05-12T18:55:06.220Z,101267.30
2023-05-12T18:57:33.080Z,101270.56
2023-05-12T18:59:59.858Z,101272.36
2023-05-12T19:02:26.514Z,101271.79
2023-05-12T19:04:54.351Z,101277.42
2023-05-12T19:07:21.052Z,101278.34
2023-05-12T19:09:47.746Z,101278.39
2023-05-12T19:12:14.366Z,101275.26
2023-05-12T19:14:42.513Z,101281.46
2023-05-12T19:17:09.544Z,101286.95
2023-05-12T19:19:36.221Z,101285.27
2023-05-12T19:22:03.716Z,101290.07
2023-05-12T19:24:30.383Z,101287.80
2023-05-12T19:26:57.395Z,101287.77
2023-05-12T19:29:24.742Z,101292.73
2023-05-12T19:31:52.423Z,101297.21
2023-05-12T19:34:20.069Z,101294.70
2023-05-12T19:36:47.561Z,101295.63
2023-05-12T19:39:14.534Z,101299.36
2023-05-12T19:41:41.511Z,101300.56
2023-05-12T19:44:08.673Z,101301.13
2023-05-12T19:46:35.535Z,101302.94
2023-05-12T19:49:03.199Z,101299.93
2023-05-12T19:51:30.049Z,101307.45
2023-05-12T19:53:56.580Z,101300.73
2023-05-12T19:56:23.587Z,101304.30
2023-05-12T19:58:51.767Z,101303.84
2023-05-12T20:01:18.484Z,101303.86
2023-05-12T20:03:45.242Z,101300.14
2023-05-12T20:06:12.061Z,101301.05
2023-05-12T20:08:38.614Z,101297.84
2023-05-12T20:11:06.395Z,101300.01
2023-05-12T20:13:33.399Z,101300.56
2023-05-12T20:16:00.284Z,101289.68
2023-05-12T20:18:28.187Z,101306.33
2023-05-12T20:20:54.939Z,101301.07
2023-05-12T20:23:21.504Z,101300.92
2023-05-12T20:25:48.125Z,101304.10
2023-05-12T20:28:14.910Z,101304.92
2023-05-12T20:30:41.479Z,101303.56
2023-05-12T20:33:08.224Z,101303.80
2023-05-12T20:35:34.962Z,101300.67
2023-05-12T20:38:02.208Z,101303.85
2023-05-12T20:40:29.058Z,101304.75
2023-05-12T20:42:55.843Z,101306.80
2023-05-12T20:45:22.609Z,101306.66
2023-05-12T20:47:49.493Z,101304.62
2023-05-12T20:50:16.421Z,101304.95
2023-05-12T20:52:44.999Z,101309.85
2023-05-12T20:55:11.702Z,101303.02
2023-05-12T20:57:39.457Z,101304.80
2023-05-12T21:00:13.030Z,101303.96
2023-05-12T21:02:40.358Z,101310.25
2023-05-12T21:05:09.790Z,101311.59
2023-05-12T21:07:36.629Z,101309.92
2023-05-12T21:10:03.928Z,101310.19
2023-05-12T21:12:31.400Z,101311.05
2023-05-12T21:14:58.165Z,101313.56
2023-05-12T21:17:25.138Z,101314.84
2023-05-12T21:19:51.977Z,101310.81
2023-05-12T21:22:21.639Z,101315.86
2023-05-12T21:24:51.848Z,101314.55
2023-05-12T21:27:18.603Z,101313.05
2023-05-12T21:29:45.234Z,101318.02
2023-05-12T21:32:12.014Z,101316.45
2023-05-12T21:34:38.620Z,101321.16
2023-05-12T21:37:05.145Z,101318.73
2023-05-12T21:39:32.082Z,101321.80
2023-05-12T21:41:58.654Z,101319.88
2023-05-12T21:44:25.205Z,101320.02
2023-05-12T21:46:52.228Z,101324.23
2023-05-12T21:49:18.906Z,101332.63
2023-05-12T21:51:45.384Z,101333.37
2023-05-12T21:54:12.205Z,101332.69
2023-05-12T21:56:38.784Z,101335.73
2023-05-12T21:59:05.720Z,101336.17
2023-05-12T22:01:32.480Z,101333.38
2023-05-12T22:03:59.192Z,101336.08
2023-05-12T22:06:26.314Z,101332.13
2023-05-12T22:08:55.112Z,101332.86
2023-05-12T22:11:22.608Z,101330.66
2023-05-12T22:13:49.745Z,101330.48
2023-05-12T22:16:17.001Z,101329.21
2023-05-12T22:18:45.167Z,101329.74
2023-05-12T22:21:12.628Z,101330.44
2023-05-12T22:23:41.318Z,101327.63
2023-05-12T22:26:08.705Z,101328.14
2023-05-12T22:28:35.321Z,101329.11
2023-05-12T22:31:02.164Z,101327.01
2023-05-12T22:33:28.799Z,101329.14
2023-05-12T22:35:58.383Z,101326.91
2023-05-12T22:38:26.329Z,101332.75
2023-05-12T22:40:52.947Z,101333.31
2023-05-12T22:43:19.383Z,101336.00
2023-05-12T22:45:52.530Z,101333.77
2023-05-12T22:48:19.473Z,101333.70
2023-05-12T22:50:46.220Z,101335.92
2023-05-12T22:53:13.894Z,101336.84
2023-05-12T22:55:40.953Z,101334.39
2023-05-12T22:58:07.473Z,101333.54
2023-05-12T23:00:34.308Z,101331.45
2023-05-12T23:03:03.817Z,101327.42
2023-05-12T23:05:30.627Z,101328.30
2023-05-12T23:07:57.323Z,101332.16
2023-05-12T23:10:24.122Z,101332.55
2023-05-12T23:12:50.762Z,101332.95
2023-05-12T23:15:18.001Z,101331.86
2023-05-12T23:17:44.737Z,101332.55
2023-05-12T23:20:11.697Z,101333.27
2023-05-12T23:22:38.492Z,101333.14
2023-05-12T23:25:05.425Z,101333.52
2023-05-12T23:27:32.209Z,101332.39
2023-05-12T23:29:59.271Z,101338.17
2023-05-12T23:32:26.115Z,101336.81
2023-05-12T23:34:52.835Z,101335.40
2023-05-12T23:37:19.752Z,101334.52
2023-05-12T23:39:46.231Z,101329.60
2023-05-12T23:42:12.726Z,101334.64
2023-05-12T23:44:39.807Z,101316.95
2023-05-12T23:47:06.374Z,101329.88
2023-05-12T23:49:32.926Z,101328.63
2023-05-12T23:51:59.860Z,101326.31
2023-05-12T23:54:26.436Z,101324.08
2023-05-12T23:56:52.937Z,101322.80
2023-05-12T23:59:19.930Z,101321.19
